createdAt,value
2018-03-29T00:00:22.000Z,28
2018-03-29T00:01:22.000Z,28
2018-03-29T00:02:22.000Z,28
2018-03-29T00:03:22.000Z,28
2018-03-29T00:04:22.000Z,28
2018-03-29T00:05:22.000Z,28
2018-03-29T00:06:22.000Z,28
2018-03-29T00:07:22.000Z,28
2018-03-29T00:08:22.000Z,28
2018-03-29T00:09:22.000Z,28
2018-03-29T00:10:22.000Z,28
2018-03-29T00:11:22.000Z,28
2018-03-29T00:12:22.000Z,28
2018-03-29T00:13:22.000Z,28
2018-03-29T00:14:22.000Z,28
2018-03-29T00:15:22.000Z,28
2018-03-29T00:16:22.000Z,28
2018-03-29T00:17:22.000Z,28
2018-03-29T00:18:22.000Z,28
2018-03-29T00:19:22.000Z,28
2018-03-29T00:20:22.000Z,28
2018-03-29T00:22:22.000Z,28
2018-03-29T00:24:22.000Z,28
2018-03-29T00:25:22.000Z,28
2018-03-29T00:26:22.000Z,28
2018-03-29T00:27:22.000Z,28
2018-03-29T00:28:22.000Z,28
2018-03-29T00:29:22.000Z,28
2018-03-29T00:30:22.000Z,28
2018-03-29T00:31:22.000Z,28
2018-03-29T00:32:22.000Z,28
2018-03-29T00:33:22.000Z,28
2018-03-29T00:35:22.000Z,28
2018-03-29T00:37:22.000Z,28
2018-03-29T00:38:22.000Z,28
2018-03-29T00:39:22.000Z,28
2018-03-29T00:40:22.000Z,28
2018-03-29T00:41:22.000Z,28
2018-03-29T00:42:22.000Z,28
2018-03-29T00:43:22.000Z,28
2018-03-29T00:44:22.000Z,28
2018-03-29T00:45:22.000Z,28
2018-03-29T00:46:22.000Z,28
2018-03-29T00:47:22.000Z,28
2018-03-29T00:48:22.000Z,28
2018-03-29T00:49:22.000Z,28
2018-03-29T00:50:22.000Z,28
2018-03-29T00:51:22.000Z,28
2018-03-29T00:52:22.000Z,28
2018-03-29T00:53:22.000Z,28
2018-03-29T00:54:22.000Z,28
2018-03-29T00:55:22.000Z,28
2018-03-29T00:56:22.000Z,28
2018-03-29T00:57:22.000Z,28
2018-03-29T00:58:22.000Z,28
2018-03-29T01:00:22.000Z,28
2018-03-29T01:01:22.000Z,28
2018-03-29T01:02:22.000Z,28
2018-03-29T01:03:22.000Z,28
2018-03-29T01:04:22.000Z,28
2018-03-29T01:05:22.000Z,28
2018-03-29T01:06:22.000Z,28
2018-03-29T01:07:22.000Z,28
2018-03-29T01:08:22.000Z,28
2018-03-29T01:10:22.000Z,28
2018-03-29T01:11:22.000Z,28
2018-03-29T01:12:22.000Z,28
2018-03-29T01:13:22.000Z,28
2018-03-29T01:15:22.000Z,28
2018-03-29T01:16:22.000Z,28
2018-03-29T01:17:22.000Z,28
2018-03-29T01:19:22.000Z,28
2018-03-29T01:20:22.000Z,28
2018-03-29T01:21:22.000Z,28
2018-03-29T01:22:22.000Z,28
2018-03-29T01:23:22.000Z,28
2018-03-29T01:24:22.000Z,28
2018-03-29T01:25:22.000Z,28
2018-03-29T01:26:22.000Z,28
2018-03-29T01:28:22.000Z,28
2018-03-29T01:29:22.000Z,28
2018-03-29T01:30:22.000Z,28
2018-03-29T01:31:22.000Z,28
2018-03-29T01:32:22.000Z,28
2018-03-29T01:33:22.000Z,28
2018-03-29T01:35:22.000Z,28
2018-03-29T01:36:22.000Z,28
2018-03-29T01:37:22.000Z,28
2018-03-29T01:38:22.000Z,28
2018-03-29T01:40:22.000Z,28
2018-03-29T01:41:22.000Z,28
2018-03-29T01:42:22.000Z,28
2018-03-29T01:43:22.000Z,28
2018-03-29T01:44:22.000Z,28
2018-03-29T01:45:22.000Z,28
2018-03-29T01:47:22.000Z,27
2018-03-29T01:48:22.000Z,28
2018-03-29T01:49:22.000Z,28
2018-03-29T01:50:22.000Z,28
2018-03-29T01:51:22.000Z,28
2018-03-29T01:52:22.000Z,28
2018-03-29T01:53:22.000Z,28
2018-03-29T01:54:22.000Z,28
2018-03-29T01:55:22.000Z,28
2018-03-29T01:56:22.000Z,28
2018-03-29T01:57:22.000Z,28
2018-03-29T01:59:22.000Z,28
2018-03-29T02:00:22.000Z,28
2018-03-29T02:01:22.000Z,28
2018-03-29T02:02:22.000Z,28
2018-03-29T02:03:22.000Z,28
2018-03-29T02:05:22.000Z,28
2018-03-29T02:06:22.000Z,28
2018-03-29T02:07:22.000Z,28
2018-03-29T02:08:22.000Z,28
2018-03-29T02:10:22.000Z,28
2018-03-29T02:11:22.000Z,28
2018-03-29T02:12:22.000Z,28
2018-03-29T02:14:21.000Z,28
2018-03-29T02:15:21.000Z,28
2018-03-29T02:16:21.000Z,28
2018-03-29T02:17:21.000Z,28
2018-03-29T02:19:21.000Z,28
2018-03-29T02:20:21.000Z,28
2018-03-29T02:21:21.000Z,28
2018-03-29T02:22:21.000Z,28
2018-03-29T02:23:21.000Z,28
2018-03-29T02:24:21.000Z,28
2018-03-29T02:25:21.000Z,28
2018-03-29T02:26:21.000Z,28
2018-03-29T02:27:21.000Z,28
2018-03-29T02:28:21.000Z,28
2018-03-29T02:29:21.000Z,28
2018-03-29T02:31:21.000Z,27
2018-03-29T02:32:21.000Z,28
2018-03-29T02:33:21.000Z,28
2018-03-29T02:34:21.000Z,28
2018-03-29T02:35:21.000Z,28
2018-03-29T02:36:21.000Z,28
2018-03-29T02:37:21.000Z,28
2018-03-29T02:38:21.000Z,28
2018-03-29T02:39:21.000Z,28
2018-03-29T02:40:21.000Z,28
2018-03-29T02:42:21.000Z,28
2018-03-29T02:43:21.000Z,28
2018-03-29T02:44:21.000Z,28
2018-03-29T02:45:21.000Z,28
2018-03-29T02:46:21.000Z,28
2018-03-29T02:47:21.000Z,28
2018-03-29T02:49:21.000Z,28
2018-03-29T02:50:21.000Z,28
2018-03-29T02:51:21.000Z,28
2018-03-29T02:52:21.000Z,28
2018-03-29T02:53:21.000Z,28
2018-03-29T02:54:21.000Z,28
2018-03-29T02:55:21.000Z,28
2018-03-29T02:57:21.000Z,28
2018-03-29T02:58:21.000Z,28
2018-03-29T03:00:21.000Z,28
2018-03-29T03:01:21.000Z,28
2018-03-29T03:02:21.000Z,28
2018-03-29T03:03:21.000Z,28
2018-03-29T03:04:21.000Z,28
2018-03-29T03:05:21.000Z,28
2018-03-29T03:06:21.000Z,28
2018-03-29T03:07:21.000Z,28
2018-03-29T03:08:21.000Z,28
2018-03-29T03:10:21.000Z,28
2018-03-29T03:11:21.000Z,28
2018-03-29T03:12:21.000Z,28
2018-03-29T03:13:21.000Z,28
2018-03-29T03:14:21.000Z,28
2018-03-29T03:15:21.000Z,28
2018-03-29T03:16:21.000Z,28
2018-03-29T03:17:21.000Z,28
2018-03-29T03:18:21.000Z,28
2018-03-29T03:19:21.000Z,28
2018-03-29T03:20:21.000Z,28
2018-03-29T03:21:21.000Z,28
2018-03-29T03:22:21.000Z,28
2018-03-29T03:23:21.000Z,28
2018-03-29T03:25:21.000Z,28
2018-03-29T03:26:21.000Z,28
2018-03-29T03:27:21.000Z,28
2018-03-29T03:28:21.000Z,28
2018-03-29T03:29:21.000Z,27
2018-03-29T03:31:21.000Z,27
2018-03-29T03:33:21.000Z,27
2018-03-29T03:34:21.000Z,28
2018-03-29T03:35:21.000Z,28
2018-03-29T03:36:21.000Z,28
2018-03-29T03:38:21.000Z,27
2018-03-29T03:39:21.000Z,28
2018-03-29T03:40:21.000Z,28
2018-03-29T03:41:21.000Z,28
2018-03-29T03:42:21.000Z,28
2018-03-29T03:43:21.000Z,28
2018-03-29T03:44:21.000Z,28
2018-03-29T03:46:21.000Z,28
2018-03-29T03:48:21.000Z,27
2018-03-29T03:49:21.000Z,28
2018-03-29T03:50:21.000Z,28
2018-03-29T03:51:21.000Z,28
2018-03-29T03:52:21.000Z,28
2018-03-29T03:53:21.000Z,28
2018-03-29T03:54:21.000Z,27
2018-03-29T03:55:21.000Z,27
2018-03-29T03:56:21.000Z,27
2018-03-29T03:57:21.000Z,27
2018-03-29T03:58:21.000Z,27
2018-03-29T03:59:21.000Z,27
2018-03-29T04:00:21.000Z,27
2018-03-29T04:01:21.000Z,27
2018-03-29T04:02:21.000Z,27
2018-03-29T04:03:21.000Z,27
2018-03-29T04:04:21.000Z,28
2018-03-29T04:06:21.000Z,27
2018-03-29T04:07:21.000Z,27
2018-03-29T04:08:21.000Z,27
2018-03-29T04:10:21.000Z,27
2018-03-29T04:12:21.000Z,27
2018-03-29T04:13:21.000Z,28
2018-03-29T04:14:21.000Z,28
2018-03-29T04:15:21.000Z,28
2018-03-29T04:16:21.000Z,28
2018-03-29T04:17:21.000Z,28
2018-03-29T04:18:21.000Z,28
2018-03-29T04:20:22.000Z,28
2018-03-29T04:21:22.000Z,28
2018-03-29T04:22:22.000Z,28
2018-03-29T04:23:22.000Z,28
2018-03-29T04:24:22.000Z,28
2018-03-29T04:25:22.000Z,28
2018-03-29T04:26:22.000Z,28
2018-03-29T04:27:22.000Z,28
2018-03-29T04:28:22.000Z,28
2018-03-29T04:29:22.000Z,28
2018-03-29T04:30:22.000Z,28
2018-03-29T04:31:22.000Z,28
2018-03-29T04:33:22.000Z,28
2018-03-29T04:34:22.000Z,28
2018-03-29T04:35:22.000Z,28
2018-03-29T04:36:22.000Z,28
2018-03-29T04:37:22.000Z,28
2018-03-29T04:38:22.000Z,28
2018-03-29T04:39:22.000Z,28
2018-03-29T04:40:22.000Z,28
2018-03-29T04:41:22.000Z,28
2018-03-29T04:42:22.000Z,29
2018-03-29T04:43:22.000Z,28
2018-03-29T04:44:22.000Z,29
2018-03-29T04:45:22.000Z,29
2018-03-29T04:47:22.000Z,29
2018-03-29T04:48:22.000Z,29
2018-03-29T04:49:22.000Z,29
2018-03-29T04:50:22.000Z,29
2018-03-29T04:51:22.000Z,29
2018-03-29T04:52:22.000Z,29
2018-03-29T04:53:22.000Z,29
2018-03-29T04:54:22.000Z,29
2018-03-29T04:55:22.000Z,29
2018-03-29T04:56:22.000Z,29
2018-03-29T04:57:22.000Z,29
2018-03-29T04:58:22.000Z,29
2018-03-29T04:59:22.000Z,29
2018-03-29T05:00:22.000Z,29
2018-03-29T05:01:22.000Z,29
2018-03-29T05:03:22.000Z,29
2018-03-29T05:04:22.000Z,29
2018-03-29T05:05:22.000Z,29
2018-03-29T05:06:22.000Z,29
2018-03-29T05:07:22.000Z,29
2018-03-29T05:08:22.000Z,30
2018-03-29T05:09:22.000Z,30
2018-03-29T05:10:22.000Z,30
2018-03-29T05:11:22.000Z,30
2018-03-29T05:12:22.000Z,30
2018-03-29T05:13:22.000Z,30
2018-03-29T05:14:22.000Z,30
2018-03-29T05:15:22.000Z,30
2018-03-29T05:16:22.000Z,30
2018-03-29T05:17:22.000Z,30
2018-03-29T05:18:22.000Z,30
2018-03-29T05:19:22.000Z,30
2018-03-29T05:20:22.000Z,30
2018-03-29T05:21:22.000Z,30
2018-03-29T05:23:22.000Z,29
2018-03-29T05:24:22.000Z,29
2018-03-29T05:25:22.000Z,29
2018-03-29T05:26:22.000Z,29
2018-03-29T05:27:22.000Z,29
2018-03-29T05:28:22.000Z,29
2018-03-29T05:29:22.000Z,29
2018-03-29T05:30:22.000Z,29
2018-03-29T05:31:22.000Z,29
2018-03-29T05:32:22.000Z,29
2018-03-29T05:33:22.000Z,29
2018-03-29T05:34:22.000Z,29
2018-03-29T05:35:22.000Z,29
2018-03-29T05:36:22.000Z,29
2018-03-29T05:37:22.000Z,29
2018-03-29T05:38:22.000Z,29
2018-03-29T05:40:22.000Z,29
2018-03-29T05:41:22.000Z,29
2018-03-29T05:42:22.000Z,29
2018-03-29T05:43:22.000Z,29
2018-03-29T05:44:22.000Z,29
2018-03-29T05:45:22.000Z,29
2018-03-29T05:47:22.000Z,28
2018-03-29T05:48:22.000Z,29
2018-03-29T05:49:22.000Z,29
2018-03-29T05:50:22.000Z,29
2018-03-29T05:51:22.000Z,29
2018-03-29T05:52:22.000Z,28
2018-03-29T05:53:22.000Z,29
2018-03-29T05:55:22.000Z,28
2018-03-29T05:56:22.000Z,29
2018-03-29T05:57:22.000Z,29
2018-03-29T05:58:22.000Z,29
2018-03-29T05:59:22.000Z,29
2018-03-29T06:00:22.000Z,29
2018-03-29T06:01:22.000Z,29
2018-03-29T06:02:22.000Z,29
2018-03-29T06:03:22.000Z,29
2018-03-29T06:04:22.000Z,29
2018-03-29T06:06:22.000Z,29
2018-03-29T06:07:22.000Z,29
2018-03-29T06:08:22.000Z,29
2018-03-29T06:09:22.000Z,29
2018-03-29T06:10:22.000Z,29
2018-03-29T06:12:22.000Z,29
2018-03-29T06:13:22.000Z,29
2018-03-29T06:14:22.000Z,29
2018-03-29T06:15:22.000Z,30
2018-03-29T06:17:22.000Z,30
2018-03-29T06:18:22.000Z,30
2018-03-29T06:19:22.000Z,30
2018-03-29T06:20:22.000Z,30
2018-03-29T06:21:22.000Z,30
2018-03-29T06:22:22.000Z,30
2018-03-29T06:24:22.000Z,30
2018-03-29T06:25:22.000Z,30
2018-03-29T06:26:22.000Z,30
2018-03-29T06:27:22.000Z,30
2018-03-29T06:29:22.000Z,29
2018-03-29T06:30:22.000Z,30
2018-03-29T06:31:22.000Z,29
2018-03-29T06:33:22.000Z,30
2018-03-29T06:34:22.000Z,30
2018-03-29T06:35:22.000Z,30
2018-03-29T06:36:22.000Z,30
2018-03-29T06:37:22.000Z,30
2018-03-29T06:38:22.000Z,30
2018-03-29T06:39:22.000Z,30
2018-03-29T06:40:22.000Z,30
2018-03-29T06:42:22.000Z,30
2018-03-29T06:43:22.000Z,30
2018-03-29T06:44:22.000Z,30
2018-03-29T06:45:22.000Z,30
2018-03-29T06:46:22.000Z,30
2018-03-29T06:47:22.000Z,30
2018-03-29T06:48:22.000Z,30
2018-03-29T06:49:22.000Z,29
2018-03-29T06:50:22.000Z,30
2018-03-29T06:51:22.000Z,29
2018-03-29T06:52:22.000Z,29
2018-03-29T06:53:22.000Z,29
2018-03-29T06:54:22.000Z,29
2018-03-29T06:55:22.000Z,30
2018-03-29T06:57:22.000Z,29
2018-03-29T06:59:22.000Z,29
2018-03-29T07:00:22.000Z,29
2018-03-29T07:02:22.000Z,29
2018-03-29T07:03:22.000Z,30
2018-03-29T07:04:22.000Z,30
2018-03-29T07:05:22.000Z,30
2018-03-29T07:06:22.000Z,29
2018-03-29T07:07:22.000Z,30
2018-03-29T07:08:22.000Z,29
2018-03-29T07:09:22.000Z,29
2018-03-29T07:10:22.000Z,30
2018-03-29T07:11:22.000Z,29
2018-03-29T07:12:22.000Z,30
2018-03-29T07:13:22.000Z,30
2018-03-29T07:14:22.000Z,29
2018-03-29T07:15:22.000Z,30
2018-03-29T07:16:22.000Z,30
2018-03-29T07:18:22.000Z,30
2018-03-29T07:19:22.000Z,30
2018-03-29T07:20:22.000Z,30
2018-03-29T07:21:22.000Z,30
2018-03-29T07:22:22.000Z,30
2018-03-29T07:23:22.000Z,29
2018-03-29T07:24:22.000Z,29
2018-03-29T07:25:22.000Z,29
2018-03-29T07:26:22.000Z,29
2018-03-29T07:27:22.000Z,29
2018-03-29T07:28:22.000Z,29
2018-03-29T07:29:22.000Z,29
2018-03-29T07:31:21.000Z,28
2018-03-29T07:32:21.000Z,29
2018-03-29T07:33:21.000Z,29
2018-03-29T07:34:21.000Z,29
2018-03-29T07:35:21.000Z,28
2018-03-29T07:36:21.000Z,28
2018-03-29T07:37:21.000Z,28
2018-03-29T07:38:21.000Z,28
2018-03-29T07:39:21.000Z,28
2018-03-29T07:40:21.000Z,28
2018-03-29T07:41:21.000Z,28
2018-03-29T07:42:21.000Z,28
2018-03-29T07:43:21.000Z,28
2018-03-29T07:44:21.000Z,28
2018-03-29T07:46:21.000Z,28
2018-03-29T07:47:21.000Z,28
2018-03-29T07:48:21.000Z,28
2018-03-29T07:49:21.000Z,28
2018-03-29T07:50:21.000Z,28
2018-03-29T07:52:21.000Z,28
2018-03-29T07:54:21.000Z,28
2018-03-29T07:55:21.000Z,28
2018-03-29T07:56:21.000Z,28
2018-03-29T07:57:21.000Z,28
2018-03-29T07:58:21.000Z,28
2018-03-29T07:59:21.000Z,28
2018-03-29T08:00:21.000Z,28
2018-03-29T08:01:21.000Z,28
2018-03-29T08:03:21.000Z,28
2018-03-29T08:04:21.000Z,28
2018-03-29T08:05:21.000Z,28
2018-03-29T08:07:21.000Z,28
2018-03-29T08:09:21.000Z,28
2018-03-29T08:10:21.000Z,28
2018-03-29T08:11:21.000Z,28
2018-03-29T08:12:21.000Z,28
2018-03-29T08:13:21.000Z,28
2018-03-29T08:14:21.000Z,28
2018-03-29T08:15:21.000Z,28
2018-03-29T08:16:21.000Z,28
2018-03-29T08:17:21.000Z,28
2018-03-29T08:18:21.000Z,28
2018-03-29T08:19:21.000Z,28
2018-03-29T08:20:21.000Z,28
2018-03-29T08:21:21.000Z,28
2018-03-29T08:22:21.000Z,28
2018-03-29T08:23:21.000Z,28
2018-03-29T08:24:21.000Z,28
2018-03-29T08:25:21.000Z,28
2018-03-29T08:26:21.000Z,28
2018-03-29T08:27:21.000Z,28
2018-03-29T08:29:21.000Z,28
2018-03-29T08:30:21.000Z,28
2018-03-29T08:31:21.000Z,28
2018-03-29T08:32:21.000Z,28
2018-03-29T08:33:21.000Z,28
2018-03-29T08:34:21.000Z,28
2018-03-29T08:35:22.000Z,28
2018-03-29T08:36:22.000Z,28
2018-03-29T08:37:22.000Z,28
2018-03-29T08:38:22.000Z,28
2018-03-29T08:39:22.000Z,28
2018-03-29T08:40:22.000Z,28
2018-03-29T08:41:22.000Z,28
2018-03-29T08:42:22.000Z,28
2018-03-29T08:44:22.000Z,28
2018-03-29T08:45:22.000Z,28
2018-03-29T08:47:22.000Z,28
2018-03-29T08:48:22.000Z,29
2018-03-29T08:50:22.000Z,29
2018-03-29T08:52:22.000Z,28
2018-03-29T08:53:22.000Z,29
2018-03-29T08:54:22.000Z,29
2018-03-29T08:55:22.000Z,29
2018-03-29T08:56:22.000Z,29
2018-03-29T08:57:22.000Z,29
2018-03-29T08:58:22.000Z,29
2018-03-29T08:59:22.000Z,29
2018-03-29T09:00:22.000Z,29
2018-03-29T09:01:22.000Z,29
2018-03-29T09:03:22.000Z,28
2018-03-29T09:04:22.000Z,29
2018-03-29T09:05:22.000Z,29
2018-03-29T09:06:22.000Z,29
2018-03-29T09:07:22.000Z,29
2018-03-29T09:08:22.000Z,29
2018-03-29T09:10:22.000Z,29
2018-03-29T09:11:22.000Z,29
2018-03-29T09:12:22.000Z,29
2018-03-29T09:14:22.000Z,29
2018-03-29T09:15:22.000Z,29
2018-03-29T09:16:22.000Z,29
2018-03-29T09:17:22.000Z,29
2018-03-29T09:18:22.000Z,29
2018-03-29T09:19:22.000Z,29
2018-03-29T09:20:22.000Z,29
2018-03-29T09:21:22.000Z,29
2018-03-29T09:23:22.000Z,29
2018-03-29T09:24:22.000Z,29
2018-03-29T09:26:22.000Z,29
2018-03-29T09:27:22.000Z,29
2018-03-29T09:28:22.000Z,29
2018-03-29T09:29:22.000Z,29
2018-03-29T09:30:22.000Z,29
2018-03-29T09:31:22.000Z,29
2018-03-29T09:32:22.000Z,29
2018-03-29T09:33:22.000Z,29
2018-03-29T09:34:22.000Z,29
2018-03-29T09:35:22.000Z,29
2018-03-29T09:36:22.000Z,29
2018-03-29T09:37:22.000Z,29
2018-03-29T09:38:22.000Z,29
2018-03-29T09:39:21.000Z,29
2018-03-29T09:41:21.000Z,29
2018-03-29T09:42:21.000Z,29
2018-03-29T09:43:21.000Z,29
2018-03-29T09:45:21.000Z,29
2018-03-29T09:46:21.000Z,29
2018-03-29T09:47:21.000Z,29
2018-03-29T09:48:21.000Z,29
2018-03-29T09:50:21.000Z,29
2018-03-29T09:51:21.000Z,29
2018-03-29T09:52:21.000Z,29
2018-03-29T09:53:21.000Z,29
2018-03-29T09:55:21.000Z,29
2018-03-29T09:56:21.000Z,29
2018-03-29T09:57:21.000Z,29
2018-03-29T09:59:21.000Z,29
2018-03-29T10:00:21.000Z,29
2018-03-29T10:01:21.000Z,29
2018-03-29T10:03:21.000Z,29
2018-03-29T10:04:21.000Z,29
2018-03-29T10:05:21.000Z,29
2018-03-29T10:06:21.000Z,29
2018-03-29T10:07:21.000Z,29
2018-03-29T10:08:21.000Z,29
2018-03-29T10:09:21.000Z,29
2018-03-29T10:10:21.000Z,29
2018-03-29T10:11:21.000Z,29
2018-03-29T10:12:21.000Z,29
2018-03-29T10:14:21.000Z,29
2018-03-29T10:15:21.000Z,29
2018-03-29T10:16:21.000Z,29
2018-03-29T10:17:21.000Z,29
2018-03-29T10:18:21.000Z,29
2018-03-29T10:20:21.000Z,29
2018-03-29T10:22:21.000Z,29
2018-03-29T10:24:21.000Z,29
2018-03-29T10:25:21.000Z,29
2018-03-29T10:27:21.000Z,29
2018-03-29T10:28:21.000Z,29
2018-03-29T10:29:21.000Z,29
2018-03-29T10:30:21.000Z,29
2018-03-29T10:31:21.000Z,29
2018-03-29T10:32:21.000Z,29
2018-03-29T10:33:21.000Z,29
2018-03-29T10:34:21.000Z,29
2018-03-29T10:35:21.000Z,29
2018-03-29T10:36:21.000Z,29
2018-03-29T10:37:21.000Z,29
2018-03-29T10:38:21.000Z,29
2018-03-29T10:39:21.000Z,28
2018-03-29T10:40:21.000Z,28
2018-03-29T10:41:21.000Z,28
2018-03-29T10:42:21.000Z,28
2018-03-29T10:43:21.000Z,28
2018-03-29T10:44:21.000Z,28
2018-03-29T10:46:21.000Z,28
2018-03-29T10:47:21.000Z,28
2018-03-29T10:48:21.000Z,28
2018-03-29T10:49:21.000Z,28
2018-03-29T10:50:21.000Z,28
2018-03-29T10:51:21.000Z,28
2018-03-29T10:52:21.000Z,28
2018-03-29T10:53:21.000Z,28
2018-03-29T10:54:21.000Z,28
2018-03-29T10:55:21.000Z,28
2018-03-29T10:56:21.000Z,28
2018-03-29T10:57:21.000Z,28
2018-03-29T10:58:21.000Z,28
2018-03-29T10:59:21.000Z,28
2018-03-29T11:00:21.000Z,28
2018-03-29T11:01:21.000Z,28
2018-03-29T11:02:21.000Z,28
2018-03-29T11:03:21.000Z,28
2018-03-29T11:05:21.000Z,28
2018-03-29T11:06:21.000Z,28
2018-03-29T11:07:21.000Z,28
2018-03-29T11:08:21.000Z,28
2018-03-29T11:10:21.000Z,28
2018-03-29T11:11:21.000Z,28
2018-03-29T11:12:21.000Z,28
2018-03-29T11:13:21.000Z,28
2018-03-29T11:14:21.000Z,28
2018-03-29T11:15:21.000Z,28
2018-03-29T11:16:21.000Z,28
2018-03-29T11:18:21.000Z,28
2018-03-29T11:20:21.000Z,28
2018-03-29T11:21:21.000Z,28
2018-03-29T11:22:21.000Z,28
2018-03-29T11:23:21.000Z,27
2018-03-29T11:24:21.000Z,27
2018-03-29T11:25:21.000Z,28
2018-03-29T11:26:21.000Z,28
2018-03-29T11:27:21.000Z,28
2018-03-29T11:28:21.000Z,28
2018-03-29T11:29:21.000Z,28
2018-03-29T11:31:21.000Z,28
2018-03-29T11:32:21.000Z,28
2018-03-29T11:33:21.000Z,28
2018-03-29T11:34:21.000Z,28
2018-03-29T11:35:21.000Z,28
2018-03-29T11:36:21.000Z,28
2018-03-29T11:37:21.000Z,28
2018-03-29T11:38:21.000Z,28
2018-03-29T11:39:21.000Z,28
2018-03-29T11:40:21.000Z,28
2018-03-29T11:41:21.000Z,28
2018-03-29T11:42:21.000Z,28
2018-03-29T11:43:21.000Z,28
2018-03-29T11:44:21.000Z,27
2018-03-29T11:45:21.000Z,26
2018-03-29T11:46:22.000Z,26
2018-03-29T11:47:22.000Z,25
2018-03-29T11:48:22.000Z,25
2018-03-29T11:49:22.000Z,25
2018-03-29T11:50:22.000Z,25
2018-03-29T11:51:22.000Z,25
2018-03-29T11:52:22.000Z,24
2018-03-29T11:53:22.000Z,24
2018-03-29T11:54:22.000Z,24
2018-03-29T11:55:22.000Z,24
2018-03-29T11:56:22.000Z,24
2018-03-29T11:57:22.000Z,24
2018-03-29T11:58:22.000Z,24
2018-03-29T11:59:22.000Z,24
2018-03-29T12:00:22.000Z,25
2018-03-29T12:01:22.000Z,24
2018-03-29T12:02:22.000Z,24
2018-03-29T12:03:22.000Z,23
2018-03-29T12:04:22.000Z,23
2018-03-29T12:05:22.000Z,23
2018-03-29T12:06:22.000Z,24
2018-03-29T12:07:22.000Z,24
2018-03-29T12:08:22.000Z,23
2018-03-29T12:09:22.000Z,23
2018-03-29T12:10:22.000Z,23
2018-03-29T12:11:22.000Z,23
2018-03-29T12:12:22.000Z,23
2018-03-29T12:13:22.000Z,23
2018-03-29T12:14:22.000Z,23
2018-03-29T12:15:22.000Z,23
2018-03-29T12:16:22.000Z,23
2018-03-29T12:17:22.000Z,23
2018-03-29T12:18:22.000Z,24
2018-03-29T12:19:22.000Z,24
2018-03-29T12:20:22.000Z,24
2018-03-29T12:21:22.000Z,24
2018-03-29T12:22:22.000Z,24
2018-03-29T12:24:22.000Z,24
2018-03-29T12:25:22.000Z,25
2018-03-29T12:26:22.000Z,25
2018-03-29T12:27:22.000Z,25
2018-03-29T12:28:22.000Z,25
2018-03-29T12:30:22.000Z,25
2018-03-29T12:31:22.000Z,25
2018-03-29T12:32:22.000Z,25
2018-03-29T12:33:22.000Z,25
2018-03-29T12:34:22.000Z,25
2018-03-29T12:35:22.000Z,25
2018-03-29T12:36:22.000Z,25
2018-03-29T12:37:22.000Z,25
2018-03-29T12:38:22.000Z,25
2018-03-29T12:39:22.000Z,25
2018-03-29T12:41:22.000Z,24
2018-03-29T12:42:22.000Z,24
2018-03-29T12:43:22.000Z,24
2018-03-29T12:44:22.000Z,23
2018-03-29T12:45:22.000Z,23
2018-03-29T12:47:22.000Z,23
2018-03-29T12:48:22.000Z,23
2018-03-29T12:49:21.000Z,23
2018-03-29T12:50:21.000Z,23
2018-03-29T12:51:21.000Z,23
2018-03-29T12:53:21.000Z,23
2018-03-29T12:54:21.000Z,23
2018-03-29T12:55:21.000Z,22
2018-03-29T12:56:21.000Z,22
2018-03-29T12:57:21.000Z,22
2018-03-29T12:58:21.000Z,22
2018-03-29T12:59:21.000Z,21
2018-03-29T13:00:21.000Z,21
2018-03-29T13:01:21.000Z,21
2018-03-29T13:02:21.000Z,21
2018-03-29T13:03:21.000Z,21
2018-03-29T13:04:21.000Z,21
2018-03-29T13:05:21.000Z,21
2018-03-29T13:06:21.000Z,21
2018-03-29T13:07:21.000Z,22
2018-03-29T13:08:21.000Z,22
2018-03-29T13:09:21.000Z,22
2018-03-29T13:10:21.000Z,22
2018-03-29T13:11:21.000Z,22
2018-03-29T13:12:21.000Z,23
2018-03-29T13:13:21.000Z,23
2018-03-29T13:15:21.000Z,23
2018-03-29T13:16:21.000Z,23
2018-03-29T13:17:21.000Z,23
2018-03-29T13:18:21.000Z,24
2018-03-29T13:19:21.000Z,24
2018-03-29T13:20:21.000Z,24
2018-03-29T13:21:21.000Z,24
2018-03-29T13:22:21.000Z,24
2018-03-29T13:24:21.000Z,24
2018-03-29T13:25:21.000Z,24
2018-03-29T13:27:21.000Z,24
2018-03-29T13:28:21.000Z,24
2018-03-29T13:29:21.000Z,24
2018-03-29T13:31:21.000Z,24
2018-03-29T13:32:21.000Z,24
2018-03-29T13:33:21.000Z,24
2018-03-29T13:34:21.000Z,24
2018-03-29T13:35:21.000Z,24
2018-03-29T13:36:21.000Z,24
2018-03-29T13:37:21.000Z,24
2018-03-29T13:38:21.000Z,24
2018-03-29T13:39:21.000Z,24
2018-03-29T13:40:21.000Z,24
2018-03-29T13:41:21.000Z,24
2018-03-29T13:42:21.000Z,24
2018-03-29T13:43:21.000Z,24
2018-03-29T13:44:21.000Z,24
2018-03-29T13:45:21.000Z,24
2018-03-29T13:46:21.000Z,24
2018-03-29T13:47:21.000Z,24
2018-03-29T13:48:21.000Z,24
2018-03-29T13:49:21.000Z,24
2018-03-29T13:51:21.000Z,23
2018-03-29T13:52:21.000Z,23
2018-03-29T13:53:21.000Z,22
2018-03-29T13:55:21.000Z,22
2018-03-29T13:56:21.000Z,22
2018-03-29T13:57:21.000Z,22
2018-03-29T13:58:21.000Z,22
2018-03-29T14:00:21.000Z,22
2018-03-29T14:01:21.000Z,22
2018-03-29T14:02:21.000Z,22
2018-03-29T14:03:21.000Z,23
2018-03-29T14:04:21.000Z,23
2018-03-29T14:05:21.000Z,23
2018-03-29T14:06:21.000Z,23
2018-03-29T14:07:21.000Z,23
2018-03-29T14:08:21.000Z,23
2018-03-29T14:09:21.000Z,23
2018-03-29T14:10:21.000Z,23
2018-03-29T14:12:21.000Z,23
2018-03-29T14:13:21.000Z,23
2018-03-29T14:14:21.000Z,23
2018-03-29T14:15:21.000Z,23
2018-03-29T14:16:21.000Z,23
2018-03-29T14:17:21.000Z,23
2018-03-29T14:18:21.000Z,23
2018-03-29T14:19:21.000Z,24
2018-03-29T14:20:21.000Z,24
2018-03-29T14:22:21.000Z,24
2018-03-29T14:23:21.000Z,24
2018-03-29T14:25:21.000Z,24
2018-03-29T14:26:21.000Z,24
2018-03-29T14:27:21.000Z,24
2018-03-29T14:29:21.000Z,24
2018-03-29T14:30:21.000Z,24
2018-03-29T14:31:21.000Z,24
2018-03-29T14:32:21.000Z,24
2018-03-29T14:33:21.000Z,24
2018-03-29T14:35:21.000Z,24
2018-03-29T14:36:21.000Z,24
2018-03-29T14:37:21.000Z,24
2018-03-29T14:38:21.000Z,24
2018-03-29T14:40:21.000Z,24
2018-03-29T14:41:21.000Z,25
2018-03-29T14:42:21.000Z,25
2018-03-29T14:43:21.000Z,25
2018-03-29T14:44:21.000Z,25
2018-03-29T14:45:21.000Z,25
2018-03-29T14:46:21.000Z,25
2018-03-29T14:47:21.000Z,25
2018-03-29T14:48:21.000Z,25
2018-03-29T14:49:21.000Z,25
2018-03-29T14:50:21.000Z,25
2018-03-29T14:51:21.000Z,25
2018-03-29T14:52:21.000Z,25
2018-03-29T14:53:21.000Z,25
2018-03-29T14:54:21.000Z,25
2018-03-29T14:55:21.000Z,25
2018-03-29T14:57:21.000Z,25
2018-03-29T14:58:21.000Z,25
2018-03-29T15:00:21.000Z,25
2018-03-29T15:01:21.000Z,25
2018-03-29T15:02:21.000Z,25
2018-03-29T15:03:21.000Z,25
2018-03-29T15:04:21.000Z,25
2018-03-29T15:05:21.000Z,25
2018-03-29T15:06:21.000Z,25
2018-03-29T15:07:21.000Z,25
2018-03-29T15:08:21.000Z,25
2018-03-29T15:09:21.000Z,25
2018-03-29T15:10:21.000Z,25
2018-03-29T15:12:21.000Z,25
2018-03-29T15:13:21.000Z,25
2018-03-29T15:14:21.000Z,25
2018-03-29T15:15:21.000Z,25
2018-03-29T15:16:21.000Z,25
2018-03-29T15:17:21.000Z,25
2018-03-29T15:18:21.000Z,25
2018-03-29T15:19:21.000Z,25
2018-03-29T15:20:21.000Z,25
2018-03-29T15:21:21.000Z,25
2018-03-29T15:23:21.000Z,25
2018-03-29T15:24:21.000Z,25
2018-03-29T15:25:21.000Z,25
2018-03-29T15:26:21.000Z,25
2018-03-29T15:27:21.000Z,25
2018-03-29T15:28:21.000Z,25
2018-03-29T15:29:21.000Z,25
2018-03-29T15:31:21.000Z,25
2018-03-29T15:32:21.000Z,25
2018-03-29T15:33:21.000Z,25
2018-03-29T15:34:21.000Z,25
2018-03-29T15:35:21.000Z,25
2018-03-29T15:36:21.000Z,25
2018-03-29T15:37:21.000Z,25
2018-03-29T15:38:21.000Z,25
2018-03-29T15:39:21.000Z,25
2018-03-29T15:40:21.000Z,25
2018-03-29T15:41:21.000Z,25
2018-03-29T15:42:21.000Z,25
2018-03-29T15:43:21.000Z,25
2018-03-29T15:44:21.000Z,25
2018-03-29T15:45:21.000Z,25
2018-03-29T15:46:21.000Z,25
2018-03-29T15:47:21.000Z,25
2018-03-29T15:48:21.000Z,25
2018-03-29T15:49:21.000Z,25
2018-03-29T15:50:21.000Z,25
2018-03-29T15:51:21.000Z,25
2018-03-29T15:52:21.000Z,25
2018-03-29T15:54:21.000Z,25
2018-03-29T15:56:21.000Z,25
2018-03-29T15:57:21.000Z,25
2018-03-29T15:58:21.000Z,25
2018-03-29T15:59:21.000Z,25
2018-03-29T16:00:21.000Z,25
2018-03-29T16:01:22.000Z,25
2018-03-29T16:02:22.000Z,25
2018-03-29T16:03:22.000Z,25
2018-03-29T16:04:22.000Z,25
2018-03-29T16:05:22.000Z,25